createdAt,value
2019-01-28T00:00:02.830Z,4.87
2019-01-28T00:00:53.020Z,5.03
2019-01-28T00:01:36.187Z,4.60
2019-01-28T00:02:12.508Z,4.50
2019-01-28T00:02:53.773Z,4.87
2019-01-28T00:03:30.310Z,4.80
2019-01-28T00:04:09.090Z,5.30
2019-01-28T00:04:46.927Z,5.67
2019-01-28T00:05:23.367Z,5.47
2019-01-28T00:06:21.390Z,5.33
2019-01-28T00:06:58.858Z,5.80
2019-01-28T00:07:35.216Z,5.10
2019-01-28T00:08:12.583Z,4.40
2019-01-28T00:08:53.769Z,5.17
2019-01-28T00:09:34.279Z,4.77
2019-01-28T00:10:10.833Z,5.57
2019-01-28T00:11:05.789Z,6.13
2019-01-28T00:11:45.253Z,3.67
2019-01-28T00:12:21.909Z,3.70
2019-01-28T00:12:59.356Z,4.93
2019-01-28T00:13:37.026Z,4.97
2019-01-28T00:14:13.312Z,4.80
2019-01-28T00:14:53.271Z,4.63
2019-01-28T00:15:29.537Z,4.23
2019-01-28T00:16:07.291Z,5.50
2019-01-28T00:16:43.759Z,4.23
2019-01-28T00:17:20.344Z,4.73
2019-01-28T00:17:56.743Z,5.30
2019-01-28T00:18:35.328Z,5.63
2019-01-28T00:19:11.520Z,5.00
2019-01-28T00:19:49.053Z,5.60
2019-01-28T00:20:25.450Z,4.30
2019-01-28T00:21:03.350Z,5.10
2019-01-28T00:21:48.442Z,5.60
2019-01-28T00:22:27.882Z,5.17
2019-01-28T00:23:04.695Z,5.10
2019-01-28T00:23:42.450Z,5.20
2019-01-28T00:24:18.916Z,5.03
2019-01-28T00:24:59.875Z,5.70
2019-01-28T00:25:40.509Z,5.70
2019-01-28T00:26:17.084Z,4.57
2019-01-28T00:26:55.084Z,4.90
2019-01-28T00:27:31.327Z,5.60
2019-01-28T00:28:07.789Z,4.10
2019-01-28T00:28:43.982Z,5.70
2019-01-28T00:29:22.783Z,5.27
2019-01-28T00:30:00.494Z,5.43
2019-01-28T00:30:40.126Z,5.67
2019-01-28T00:31:17.936Z,4.63
2019-01-28T00:31:54.371Z,5.20
2019-01-28T00:32:30.769Z,5.90
2019-01-28T00:33:07.179Z,4.73
2019-01-28T00:33:43.402Z,4.43
2019-01-28T00:34:19.829Z,5.30
2019-01-28T00:34:56.090Z,6.30
2019-01-28T00:35:33.818Z,5.30
2019-01-28T00:36:10.296Z,5.10
2019-01-28T00:36:46.599Z,4.33
2019-01-28T00:37:23.271Z,5.70
2019-01-28T00:37:59.763Z,4.50
2019-01-28T00:38:37.064Z,4.97
2019-01-28T00:39:14.793Z,5.37
2019-01-28T00:39:51.958Z,5.30
2019-01-28T00:40:28.325Z,6.00
2019-01-28T00:41:05.071Z,5.20
2019-01-28T00:41:44.666Z,5.50
2019-01-28T00:42:23.031Z,5.37
2019-01-28T00:42:59.429Z,5.47
2019-01-28T00:43:38.347Z,6.17
2019-01-28T00:44:15.945Z,4.90
2019-01-28T00:44:53.327Z,6.03
2019-01-28T00:45:29.796Z,5.30
2019-01-28T00:46:08.379Z,5.40
2019-01-28T00:46:44.693Z,5.77
2019-01-28T00:47:22.220Z,5.90
2019-01-28T00:47:58.772Z,5.60
2019-01-28T00:48:34.955Z,5.90
2019-01-28T00:49:12.375Z,5.23
2019-01-28T00:49:49.422Z,6.53
2019-01-28T00:50:26.251Z,5.23
2019-01-28T00:51:03.260Z,4.27
2019-01-28T00:51:39.470Z,6.30
2019-01-28T00:52:15.833Z,4.23
2019-01-28T00:52:54.385Z,6.10
2019-01-28T00:53:30.880Z,4.60
2019-01-28T00:54:07.269Z,5.57
2019-01-28T00:54:44.279Z,5.97
2019-01-28T00:55:21.310Z,4.87
2019-01-28T00:55:57.702Z,6.03
2019-01-28T00:56:35.406Z,5.63
2019-01-28T00:57:11.596Z,4.43
2019-01-28T00:57:49.158Z,5.37
2019-01-28T00:58:26.655Z,6.43
2019-01-28T00:59:08.015Z,5.33
2019-01-28T00:59:44.210Z,5.90
2019-01-28T01:00:24.023Z,5.73
2019-01-28T01:01:01.777Z,4.60
2019-01-28T01:01:39.015Z,5.07
2019-01-28T01:02:15.325Z,5.40
2019-01-28T01:02:51.966Z,5.07
2019-01-28T01:03:30.695Z,5.53
2019-01-28T01:04:07.142Z,4.50
2019-01-28T01:04:44.420Z,5.00
2019-01-28T01:05:23.839Z,4.73
2019-01-28T01:06:00.183Z,5.27
2019-01-28T01:06:36.471Z,5.43
2019-01-28T01:07:15.619Z,3.93
2019-01-28T01:07:56.111Z,4.53
2019-01-28T01:08:33.658Z,4.30
2019-01-28T01:09:12.367Z,4.57
2019-01-28T01:09:48.569Z,5.20
2019-01-28T01:10:25.537Z,5.27
2019-01-28T01:11:02.960Z,6.03
2019-01-28T01:11:41.046Z,4.93
2019-01-28T01:12:17.542Z,5.13
2019-01-28T01:12:58.470Z,5.33
2019-01-28T01:13:34.979Z,4.57
2019-01-28T01:14:11.205Z,6.30
2019-01-28T01:14:47.830Z,5.67
2019-01-28T01:15:24.242Z,4.67
2019-01-28T01:16:01.956Z,4.60
2019-01-28T01:16:38.391Z,6.10
2019-01-28T01:17:15.846Z,4.83
2019-01-28T01:17:52.442Z,5.03
2019-01-28T01:18:28.839Z,5.53
2019-01-28T01:19:07.765Z,5.07
2019-01-28T01:19:45.650Z,4.57
2019-01-28T01:20:21.983Z,5.30
2019-01-28T01:20:58.188Z,4.80
2019-01-28T01:21:34.616Z,4.33
2019-01-28T01:22:12.605Z,4.63
2019-01-28T01:22:48.884Z,5.40
2019-01-28T01:23:25.623Z,5.93
2019-01-28T01:24:04.781Z,4.37
2019-01-28T01:24:42.202Z,5.90
2019-01-28T01:25:21.580Z,4.33
2019-01-28T01:25:58.914Z,4.70
2019-01-28T01:26:35.365Z,4.30
2019-01-28T01:27:11.826Z,4.33
2019-01-28T01:27:49.205Z,4.30
2019-01-28T01:28:25.394Z,4.20
2019-01-28T01:29:01.700Z,4.67
2019-01-28T01:29:39.015Z,4.90
2019-01-28T01:30:17.515Z,4.53
2019-01-28T01:30:55.151Z,5.40
2019-01-28T01:31:33.873Z,4.47
2019-01-28T01:32:17.398Z,4.50
2019-01-28T01:32:53.712Z,4.80
2019-01-28T01:33:30.240Z,4.43
2019-01-28T01:34:06.786Z,3.47
2019-01-28T01:34:44.022Z,4.57
2019-01-28T01:35:22.568Z,3.83
2019-01-28T01:35:59.002Z,5.30
2019-01-28T01:36:35.533Z,4.53
2019-01-28T01:37:11.913Z,5.10
2019-01-28T01:37:48.340Z,4.80
2019-01-28T01:40:19.926Z,4.00
2019-01-28T01:40:58.717Z,3.93
2019-01-28T01:41:35.524Z,4.83
2019-01-28T01:42:12.116Z,4.60
2019-01-28T01:42:48.725Z,4.63
2019-01-28T01:43:26.678Z,5.13
2019-01-28T01:44:02.901Z,5.63
2019-01-28T01:44:57.808Z,4.93
2019-01-28T01:45:34.187Z,5.07
2019-01-28T01:46:11.042Z,3.87
2019-01-28T01:46:52.270Z,4.57
2019-01-28T01:47:32.133Z,4.07
2019-01-28T01:48:08.438Z,3.97
2019-01-28T01:48:48.225Z,3.23
2019-01-28T01:49:34.460Z,5.20
2019-01-28T01:50:11.560Z,4.27
2019-01-28T01:50:49.070Z,4.70
2019-01-28T01:51:26.820Z,4.03
2019-01-28T01:52:03.415Z,4.40
2019-01-28T01:52:39.770Z,5.83
2019-01-28T01:53:17.315Z,4.80
2019-01-28T01:53:53.485Z,4.67
2019-01-28T01:54:40.816Z,4.77
2019-01-28T01:55:17.186Z,5.60
2019-01-28T01:55:54.537Z,4.33
2019-01-28T01:56:30.838Z,3.80
2019-01-28T01:57:07.256Z,5.27
2019-01-28T01:57:43.733Z,4.83
2019-01-28T01:58:21.048Z,4.77
2019-01-28T01:58:57.389Z,4.90
2019-01-28T01:59:34.749Z,5.03
2019-01-28T02:00:15.158Z,4.80
2019-01-28T02:00:54.542Z,5.47
2019-01-28T02:01:33.245Z,3.43
2019-01-28T02:02:09.951Z,5.40
2019-01-28T02:02:46.356Z,4.60
2019-01-28T02:03:22.611Z,4.27
2019-01-28T02:03:59.874Z,4.90
2019-01-28T02:04:37.475Z,4.70
2019-01-28T02:05:15.038Z,5.63
2019-01-28T02:05:52.553Z,5.10
2019-01-28T02:06:28.975Z,5.60
2019-01-28T02:07:15.057Z,5.07
2019-01-28T02:07:56.396Z,4.40
2019-01-28T02:08:32.653Z,5.47
2019-01-28T02:09:10.567Z,4.53
2019-01-28T02:09:47.993Z,5.13
2019-01-28T02:10:24.603Z,5.00
2019-01-28T02:11:00.751Z,6.67
2019-01-28T02:11:38.259Z,5.40
2019-01-28T02:12:14.550Z,5.10
2019-01-28T02:12:52.151Z,5.50
2019-01-28T02:13:28.339Z,4.50
2019-01-28T02:14:04.932Z,4.87
2019-01-28T02:14:44.445Z,4.43
2019-01-28T02:15:23.630Z,5.00
2019-01-28T02:16:00.035Z,4.60
2019-01-28T02:16:36.538Z,5.07
2019-01-28T02:17:12.773Z,4.20
2019-01-28T02:17:50.055Z,4.20
2019-01-28T02:18:26.487Z,5.13
2019-01-28T02:19:02.622Z,4.83
2019-01-28T02:19:39.707Z,5.67
2019-01-28T02:20:16.434Z,4.97
2019-01-28T02:20:55.092Z,4.57
2019-01-28T02:21:32.781Z,5.10
2019-01-28T02:22:27.630Z,4.50
2019-01-28T02:23:03.834Z,5.23
2019-01-28T02:23:43.325Z,5.40
2019-01-28T02:24:19.677Z,4.50
2019-01-28T02:24:56.109Z,5.03
2019-01-28T02:25:33.396Z,5.20
2019-01-28T02:26:11.479Z,4.30
2019-01-28T02:26:58.788Z,5.10
2019-01-28T02:27:35.087Z,4.83
2019-01-28T02:28:11.278Z,4.77
2019-01-28T02:28:47.617Z,5.10
2019-01-28T02:29:24.978Z,5.40
2019-01-28T02:30:01.454Z,5.63
2019-01-28T02:30:37.861Z,6.00
2019-01-28T02:31:15.470Z,4.67
2019-01-28T02:31:52.652Z,5.03
2019-01-28T02:32:29.314Z,6.20
2019-01-28T02:33:05.924Z,6.20
2019-01-28T02:33:43.895Z,5.67
2019-01-28T02:34:21.614Z,5.20
2019-01-28T02:34:57.959Z,4.80
2019-01-28T02:35:34.210Z,5.53
2019-01-28T02:36:11.567Z,5.60
2019-01-28T02:36:47.709Z,5.27
2019-01-28T02:37:25.727Z,5.40
2019-01-28T02:38:03.822Z,5.60
2019-01-28T02:38:41.196Z,5.40
2019-01-28T02:39:17.580Z,5.77
2019-01-28T02:39:53.789Z,5.73
2019-01-28T02:40:33.200Z,5.03
2019-01-28T02:41:09.442Z,4.80
2019-01-28T02:41:45.617Z,6.17
2019-01-28T02:42:23.090Z,4.90
2019-01-28T02:43:22.353Z,5.80
2019-01-28T02:44:01.570Z,4.57
2019-01-28T02:44:37.807Z,5.70
2019-01-28T02:45:17.115Z,5.53
2019-01-28T02:45:54.966Z,5.30
2019-01-28T02:46:33.604Z,6.23
2019-01-28T02:47:11.354Z,5.60
2019-01-28T02:47:47.624Z,5.70
2019-01-28T02:48:23.930Z,5.13
2019-01-28T02:49:02.840Z,5.97
2019-01-28T02:49:39.192Z,4.70
2019-01-28T02:50:17.407Z,7.27
2019-01-28T02:51:13.490Z,6.77
2019-01-28T02:51:50.582Z,5.43
2019-01-28T02:52:26.925Z,7.00
2019-01-28T02:53:03.225Z,5.27
2019-01-28T02:53:39.661Z,6.07
2019-01-28T02:54:18.595Z,5.93
2019-01-28T02:54:54.909Z,5.90
2019-01-28T02:55:31.230Z,7.87
2019-01-28T02:56:08.754Z,6.70
2019-01-28T02:56:55.349Z,6.60
2019-01-28T02:57:31.577Z,6.20
2019-01-28T02:58:09.251Z,5.43
2019-01-28T02:58:45.973Z,6.33
2019-01-28T02:59:23.510Z,5.80
2019-01-28T02:59:59.891Z,6.70
2019-01-28T03:00:36.106Z,6.80
2019-01-28T03:01:12.982Z,7.23
2019-01-28T03:01:49.417Z,5.73
2019-01-28T03:02:25.496Z,6.00
2019-01-28T03:03:01.884Z,6.00
2019-01-28T03:03:41.430Z,5.10
2019-01-28T03:04:17.782Z,6.23
2019-01-28T03:04:56.274Z,5.33
2019-01-28T03:05:37.596Z,6.00
2019-01-28T03:06:13.878Z,5.73
2019-01-28T03:06:53.129Z,5.50
2019-01-28T03:07:29.537Z,5.87
2019-01-28T03:08:05.985Z,6.80
2019-01-28T03:08:46.983Z,5.80
2019-01-28T03:09:24.070Z,5.90
2019-01-28T03:10:01.599Z,6.10
2019-01-28T03:10:39.181Z,6.80
2019-01-28T03:11:17.762Z,6.97
2019-01-28T03:11:54.261Z,6.53
2019-01-28T03:12:30.422Z,5.30
2019-01-28T03:13:07.076Z,4.70
2019-01-28T03:13:49.497Z,6.57
2019-01-28T03:14:27.915Z,6.00
2019-01-28T03:15:05.942Z,5.50
2019-01-28T03:15:42.389Z,6.43
2019-01-28T03:16:18.682Z,5.97
2019-01-28T03:16:58.308Z,5.40
2019-01-28T03:17:39.418Z,6.80
2019-01-28T03:18:15.903Z,5.97
2019-01-28T03:18:53.661Z,5.70
2019-01-28T03:19:30.820Z,6.90
2019-01-28T03:20:08.086Z,6.20
2019-01-28T03:20:45.138Z,6.90
2019-01-28T03:21:21.826Z,5.83
2019-01-28T03:21:58.383Z,5.77
2019-01-28T03:22:37.549Z,5.80
2019-01-28T03:23:15.978Z,6.83
2019-01-28T03:23:52.190Z,5.80
2019-01-28T03:24:28.841Z,7.20
2019-01-28T03:25:06.036Z,7.13
2019-01-28T03:25:46.825Z,5.40
2019-01-28T03:26:26.182Z,6.47
2019-01-28T03:27:02.319Z,6.77
2019-01-28T03:27:40.444Z,5.63
2019-01-28T03:28:17.488Z,6.97
2019-01-28T03:28:55.584Z,6.97
2019-01-28T03:29:31.918Z,6.47
2019-01-28T03:30:11.013Z,6.63
2019-01-28T03:30:51.777Z,7.83
2019-01-28T03:31:29.677Z,6.70
2019-01-28T03:32:07.169Z,6.73
2019-01-28T03:32:43.505Z,7.87
2019-01-28T03:33:20.111Z,5.90
2019-01-28T03:33:58.115Z,6.67
2019-01-28T03:34:34.292Z,7.37
2019-01-28T03:35:11.221Z,6.50
2019-01-28T03:35:49.808Z,6.60
2019-01-28T03:36:28.084Z,6.43
2019-01-28T03:37:07.131Z,5.73
2019-01-28T03:37:45.553Z,6.87
2019-01-28T03:38:22.897Z,6.10
2019-01-28T03:39:00.558Z,6.20
2019-01-28T03:39:37.138Z,8.10
2019-01-28T03:40:20.037Z,7.10
2019-01-28T03:40:58.363Z,7.37
2019-01-28T03:41:36.270Z,6.10
2019-01-28T03:42:12.691Z,7.03
2019-01-28T03:42:50.030Z,7.10
2019-01-28T03:43:27.453Z,7.40
2019-01-28T03:44:07.060Z,6.50
2019-01-28T03:44:44.835Z,7.00
2019-01-28T03:45:23.861Z,6.70
2019-01-28T03:46:00.928Z,6.67
2019-01-28T03:46:37.888Z,8.10
2019-01-28T03:47:14.179Z,7.83
2019-01-28T03:47:52.172Z,8.07
2019-01-28T03:48:31.301Z,7.13
2019-01-28T03:49:07.590Z,7.50
2019-01-28T03:49:44.212Z,7.10
2019-01-28T03:50:20.847Z,7.47
2019-01-28T03:50:58.404Z,7.83
2019-01-28T03:51:34.731Z,7.40
2019-01-28T03:52:13.448Z,6.40
2019-01-28T03:52:51.205Z,7.60
2019-01-28T03:53:27.603Z,7.10
2019-01-28T03:54:04.216Z,7.73
2019-01-28T03:54:40.571Z,7.30
2019-01-28T03:55:17.071Z,10.70
2019-01-28T03:55:54.001Z,9.27
2019-01-28T03:56:31.023Z,8.77
2019-01-28T03:57:09.042Z,8.60
2019-01-28T03:57:45.433Z,10.10
2019-01-28T03:58:22.031Z,8.43
2019-01-28T03:58:58.234Z,8.43
2019-01-28T03:59:34.599Z,9.70
2019-01-28T04:00:14.373Z,8.20
2019-01-28T04:00:52.204Z,10.10
2019-01-28T04:01:28.569Z,9.70
2019-01-28T04:02:04.957Z,10.10
2019-01-28T04:02:41.486Z,9.50
2019-01-28T04:03:17.801Z,8.30
2019-01-28T04:03:54.126Z,8.40
2019-01-28T04:04:30.723Z,9.27
2019-01-28T04:05:10.318Z,7.87
2019-01-28T04:05:46.687Z,10.17
2019-01-28T04:06:24.056Z,9.07
2019-01-28T04:07:00.292Z,8.93
2019-01-28T04:07:36.721Z,8.10
2019-01-28T04:08:13.412Z,8.17
2019-01-28T04:08:50.427Z,8.80
2019-01-28T04:09:28.626Z,9.63
2019-01-28T04:10:05.119Z,8.90
2019-01-28T04:10:42.058Z,7.50
2019-01-28T04:11:18.966Z,8.27
2019-01-28T04:11:55.421Z,7.70
2019-01-28T04:12:32.345Z,8.50
2019-01-28T04:13:09.813Z,7.80
2019-01-28T04:13:46.411Z,9.37
2019-01-28T04:14:23.382Z,8.47
2019-01-28T04:15:00.224Z,8.37
2019-01-28T04:15:36.774Z,10.00
2019-01-28T04:16:13.164Z,8.30
2019-01-28T04:16:49.503Z,7.30
2019-01-28T04:17:27.687Z,8.50
2019-01-28T04:18:03.921Z,9.20
2019-01-28T04:18:41.557Z,8.43
2019-01-28T04:19:17.958Z,6.70
2019-01-28T04:19:55.889Z,8.53
2019-01-28T04:20:33.482Z,7.40
2019-01-28T04:21:12.335Z,9.17
2019-01-28T04:21:49.860Z,7.90
2019-01-28T04:22:33.115Z,8.97
2019-01-28T04:23:11.013Z,8.83
2019-01-28T04:23:49.776Z,8.70
2019-01-28T04:24:28.242Z,7.77
2019-01-28T04:25:06.806Z,8.60
2019-01-28T04:25:43.513Z,8.37
2019-01-28T04:26:23.951Z,8.33
2019-01-28T04:27:02.373Z,8.83
2019-01-28T04:27:40.089Z,9.17
2019-01-28T04:28:16.241Z,8.00
2019-01-28T04:28:54.782Z,9.10
2019-01-28T04:29:32.074Z,8.00
2019-01-28T04:30:17.870Z,7.23
2019-01-28T04:30:54.353Z,7.80
2019-01-28T04:31:33.512Z,8.93
2019-01-28T04:32:19.933Z,8.63
2019-01-28T04:32:56.493Z,9.17
2019-01-28T04:33:34.159Z,8.30
2019-01-28T04:34:11.886Z,9.23
2019-01-28T04:34:49.613Z,8.77
2019-01-28T04:35:25.896Z,8.23
2019-01-28T04:36:02.189Z,8.37
2019-01-28T04:36:43.059Z,7.67
2019-01-28T04:37:19.995Z,8.37
2019-01-28T04:38:02.601Z,7.90
2019-01-28T04:38:40.134Z,8.13
2019-01-28T04:39:17.330Z,8.53
2019-01-28T04:39:53.764Z,8.07
2019-01-28T04:40:30.145Z,7.93
2019-01-28T04:41:08.313Z,7.93
2019-01-28T04:41:48.952Z,9.93
2019-01-28T04:42:27.429Z,8.13
2019-01-28T04:43:06.331Z,9.07
2019-01-28T04:43:46.942Z,8.50
2019-01-28T04:44:23.383Z,9.80
2019-01-28T04:45:01.427Z,8.50
2019-01-28T04:45:40.231Z,8.80
2019-01-28T04:46:20.538Z,8.90
2019-01-28T04:46:57.949Z,7.67
2019-01-28T04:47:35.995Z,8.60
2019-01-28T04:48:14.847Z,8.97
2019-01-28T04:49:03.216Z,6.77
2019-01-28T04:49:39.833Z,8.33
2019-01-28T04:50:22.182Z,9.10
2019-01-28T04:51:01.595Z,9.43
2019-01-28T04:51:41.358Z,9.53
2019-01-28T04:52:18.931Z,10.00
2019-01-28T04:52:55.357Z,9.10
2019-01-28T04:53:36.764Z,7.57
2019-01-28T04:54:12.993Z,8.23
2019-01-28T04:54:54.389Z,8.63
2019-01-28T04:55:34.324Z,6.97
2019-01-28T04:56:10.571Z,8.10
2019-01-28T04:56:46.878Z,8.20
2019-01-28T04:57:26.687Z,8.67
2019-01-28T04:58:14.669Z,9.00
2019-01-28T04:58:55.589Z,7.77
2019-01-28T04:59:31.767Z,9.93
2019-01-28T05:00:15.458Z,8.27
2019-01-28T05:00:59.476Z,8.23
2019-01-28T05:01:35.832Z,7.67
2019-01-28T05:02:12.189Z,7.57
2019-01-28T05:02:58.769Z,7.47
2019-01-28T05:03:36.941Z,7.33
2019-01-28T05:04:16.054Z,8.23
2019-01-28T05:04:55.577Z,8.67
2019-01-28T05:05:31.878Z,8.57
2019-01-28T05:06:10.772Z,8.73
2019-01-28T05:06:46.943Z,7.30
2019-01-28T05:07:24.423Z,7.93
2019-01-28T05:08:00.772Z,7.47
2019-01-28T05:08:56.340Z,7.20
2019-01-28T05:09:32.804Z,7.90
2019-01-28T05:10:15.343Z,8.67
2019-01-28T05:10:56.513Z,8.30
2019-01-28T05:11:32.943Z,7.77
2019-01-28T05:12:10.296Z,8.43
2019-01-28T05:12:50.681Z,8.70
2019-01-28T05:13:26.980Z,7.43
2019-01-28T05:14:04.897Z,8.23
2019-01-28T05:14:41.239Z,7.47
2019-01-28T05:15:24.950Z,7.60
2019-01-28T05:16:03.433Z,8.63
2019-01-28T05:16:43.276Z,7.60
2019-01-28T05:17:20.445Z,7.40
2019-01-28T05:17:56.956Z,7.57
2019-01-28T05:18:34.223Z,7.53
2019-01-28T05:19:12.914Z,6.00
2019-01-28T05:19:49.321Z,7.97
2019-01-28T05:20:25.806Z,7.53
2019-01-28T05:21:02.282Z,6.97
2019-01-28T05:21:38.900Z,7.23
2019-01-28T05:22:15.924Z,8.00
2019-01-28T05:22:52.619Z,8.13
2019-01-28T05:23:30.951Z,6.90
2019-01-28T05:24:07.322Z,7.53
2019-01-28T05:24:43.532Z,6.30
2019-01-28T05:25:19.976Z,7.10
2019-01-28T05:25:57.774Z,7.00
2019-01-28T05:26:38.366Z,7.87
2019-01-28T05:27:14.861Z,6.50
2019-01-28T05:27:51.826Z,7.80
2019-01-28T05:28:28.014Z,7.33
2019-01-28T05:29:05.281Z,7.23
2019-01-28T05:29:46.537Z,8.30
2019-01-28T05:30:24.942Z,8.10
2019-01-28T05:31:01.943Z,8.20
2019-01-28T05:31:39.909Z,7.43
2019-01-28T05:32:16.352Z,7.33
2019-01-28T05:33:00.087Z,6.07
2019-01-28T05:33:37.304Z,7.20
2019-01-28T05:34:13.593Z,7.00
2019-01-28T05:34:49.793Z,6.60
2019-01-28T05:35:28.157Z,6.67
2019-01-28T05:36:04.513Z,7.27
2019-01-28T05:36:45.916Z,6.90
2019-01-28T05:37:22.592Z,6.40
2019-01-28T05:37:59.319Z,6.40
2019-01-28T05:38:36.855Z,6.30
2019-01-28T05:39:13.644Z,7.00
2019-01-28T05:39:50.020Z,7.00
2019-01-28T05:40:26.888Z,7.43
2019-01-28T05:41:05.884Z,6.37
2019-01-28T05:41:44.393Z,7.10
2019-01-28T05:42:21.031Z,6.53
2019-01-28T05:42:58.808Z,7.07
2019-01-28T05:43:35.263Z,7.03
2019-01-28T05:44:11.861Z,6.83
2019-01-28T05:44:52.761Z,7.30
2019-01-28T05:45:29.029Z,7.30
2019-01-28T05:46:05.530Z,6.60
2019-01-28T05:46:45.175Z,5.83
2019-01-28T05:47:21.504Z,6.60
2019-01-28T05:47:57.895Z,6.77
2019-01-28T05:48:39.441Z,6.93
2019-01-28T05:49:17.276Z,7.27
2019-01-28T05:49:54.736Z,6.93
2019-01-28T05:50:31.008Z,6.90
2019-01-28T05:51:07.215Z,6.53
2019-01-28T05:51:43.408Z,8.10
2019-01-28T05:52:19.749Z,6.73
2019-01-28T05:52:56.865Z,7.00
2019-01-28T05:53:34.460Z,6.40
2019-01-28T05:54:10.785Z,7.57
2019-01-28T05:54:47.241Z,8.00
2019-01-28T05:55:25.458Z,6.73
2019-01-28T05:56:02.884Z,6.53
2019-01-28T05:56:41.499Z,7.20
2019-01-28T05:57:18.109Z,7.40
2019-01-28T05:57:57.551Z,6.40
2019-01-28T05:58:33.883Z,6.77
2019-01-28T05:59:10.012Z,6.27
2019-01-28T05:59:46.917Z,7.13
2019-01-28T06:00:39.993Z,8.00
2019-01-28T06:01:17.552Z,6.70
2019-01-28T06:01:53.962Z,6.07
2019-01-28T06:02:31.100Z,6.80
2019-01-28T06:03:19.957Z,7.83
2019-01-28T06:03:56.219Z,7.17
2019-01-28T06:04:32.623Z,6.50
2019-01-28T06:05:11.918Z,6.37
2019-01-28T06:05:48.753Z,6.10
2019-01-28T06:06:34.941Z,6.53
2019-01-28T06:07:15.194Z,6.47
2019-01-28T06:07:51.722Z,7.60
2019-01-28T06:08:30.696Z,7.50
2019-01-28T06:09:10.061Z,5.70
2019-01-28T06:09:46.586Z,6.87
2019-01-28T06:10:25.180Z,6.27
2019-01-28T06:11:01.423Z,6.73
2019-01-28T06:11:39.313Z,6.73
2019-01-28T06:12:18.280Z,6.50
2019-01-28T06:12:54.688Z,6.70
2019-01-28T06:13:31.353Z,6.40
2019-01-28T06:14:08.969Z,7.20
2019-01-28T06:14:45.220Z,6.40
2019-01-28T06:15:24.083Z,7.10
2019-01-28T06:16:01.922Z,6.20
2019-01-28T06:16:40.500Z,5.97
2019-01-28T06:17:21.354Z,8.13
2019-01-28T06:17:58.721Z,6.07
2019-01-28T06:18:38.151Z,6.43
2019-01-28T06:19:14.314Z,7.27
2019-01-28T06:19:50.891Z,6.37
2019-01-28T06:20:31.755Z,7.07
2019-01-28T06:21:08.104Z,7.00
2019-01-28T06:21:46.811Z,6.07
2019-01-28T06:22:23.214Z,7.57
2019-01-28T06:23:00.429Z,8.43
2019-01-28T06:23:36.844Z,7.97
2019-01-28T06:24:13.043Z,6.80
2019-01-28T06:24:50.473Z,6.93
2019-01-28T06:25:46.893Z,6.90
2019-01-28T06:26:28.247Z,8.70
2019-01-28T06:27:05.556Z,6.10
2019-01-28T06:27:43.530Z,7.77
2019-01-28T06:28:20.009Z,7.30
2019-01-28T06:28:56.323Z,7.43
2019-01-28T06:29:43.405Z,7.07
2019-01-28T06:30:26.062Z,7.47
2019-01-28T06:31:03.374Z,6.90
2019-01-28T06:31:39.847Z,7.07
2019-01-28T06:32:15.987Z,6.93
2019-01-28T06:32:52.587Z,6.30
2019-01-28T06:33:32.110Z,7.60
2019-01-28T06:34:11.717Z,7.60
2019-01-28T06:34:48.149Z,7.17
2019-01-28T06:35:24.914Z,8.50
2019-01-28T06:36:01.286Z,7.93
2019-01-28T06:36:38.880Z,8.43
2019-01-28T06:37:17.940Z,7.13
2019-01-28T06:37:54.406Z,7.40
2019-01-28T06:38:32.051Z,7.43
2019-01-28T06:39:21.131Z,8.10
2019-01-28T06:39:57.338Z,6.60
2019-01-28T06:40:38.986Z,6.73
2019-01-28T06:41:15.424Z,7.80
2019-01-28T06:41:55.145Z,7.80
2019-01-28T06:42:34.261Z,7.20
2019-01-28T06:43:10.561Z,6.80
2019-01-28T06:43:51.626Z,7.23
2019-01-28T06:44:49.358Z,7.07
2019-01-28T06:45:29.888Z,6.57
2019-01-28T06:46:09.366Z,7.80
2019-01-28T06:46:45.726Z,8.70
2019-01-28T06:47:25.122Z,7.23
2019-01-28T06:48:01.640Z,6.70
2019-01-28T06:48:44.588Z,5.93
2019-01-28T06:49:23.255Z,7.33
2019-01-28T06:49:59.387Z,6.80
2019-01-28T06:50:35.747Z,7.27
2019-01-28T06:51:12.523Z,7.73
2019-01-28T06:51:48.935Z,7.37
2019-01-28T06:52:26.586Z,8.10
2019-01-28T06:53:04.368Z,8.77
2019-01-28T06:53:43.789Z,7.37
2019-01-28T06:54:22.944Z,7.20
2019-01-28T06:55:00.447Z,9.17
2019-01-28T06:55:36.835Z,9.07
2019-01-28T06:56:13.300Z,7.73
2019-01-28T06:56:49.630Z,7.90
2019-01-28T06:57:25.819Z,8.60
2019-01-28T06:58:03.886Z,7.57
2019-01-28T06:58:40.334Z,8.50
2019-01-28T06:59:23.008Z,8.40
2019-01-28T07:00:06.695Z,8.03
2019-01-28T07:00:42.966Z,6.93
2019-01-28T07:01:24.887Z,9.13
2019-01-28T07:02:01.199Z,7.83
2019-01-28T07:02:39.964Z,9.03
2019-01-28T07:03:16.221Z,9.20
2019-01-28T07:03:53.642Z,8.13
2019-01-28T07:04:29.880Z,9.63
2019-01-28T07:05:06.502Z,6.70
2019-01-28T07:05:43.841Z,8.70
2019-01-28T07:06:20.202Z,8.60
2019-01-28T07:06:56.528Z,7.90
2019-01-28T07:07:35.987Z,8.10
2019-01-28T07:08:12.187Z,7.50
2019-01-28T07:09:05.804Z,9.13
2019-01-28T07:09:43.791Z,7.77
2019-01-28T07:10:41.403Z,7.47
2019-01-28T07:11:17.783Z,8.00
2019-01-28T07:11:54.034Z,7.53
2019-01-28T07:12:31.326Z,7.13
2019-01-28T07:13:08.899Z,8.23
2019-01-28T07:13:45.128Z,8.00
2019-01-28T07:14:23.658Z,8.80
2019-01-28T07:15:00.240Z,7.20
2019-01-28T07:15:38.927Z,7.90
2019-01-28T07:16:16.451Z,7.57
2019-01-28T07:16:54.110Z,7.90
2019-01-28T07:17:30.231Z,6.77
2019-01-28T07:18:09.519Z,7.97
2019-01-28T07:18:47.540Z,8.67
2019-01-28T07:19:28.846Z,9.67
2019-01-28T07:20:15.878Z,7.67
2019-01-28T07:20:52.289Z,8.30
2019-01-28T07:21:28.764Z,7.00
2019-01-28T07:22:07.616Z,7.93
2019-01-28T07:22:47.368Z,8.67
2019-01-28T07:23:23.650Z,7.97
2019-01-28T07:23:59.907Z,8.40
2019-01-28T07:24:37.765Z,9.30
2019-01-28T07:25:13.988Z,7.70
2019-01-28T07:25:50.120Z,8.40
2019-01-28T07:26:45.194Z,8.80
2019-01-28T07:27:21.577Z,7.30
2019-01-28T07:27:57.990Z,6.80
2019-01-28T07:28:36.291Z,8.40
2019-01-28T07:29:12.689Z,8.50
2019-01-28T07:30:10.018Z,8.87
2019-01-28T07:30:46.295Z,9.70
2019-01-28T07:31:31.560Z,7.90
2019-01-28T07:32:09.040Z,7.97
2019-01-28T07:32:49.879Z,9.27
2019-01-28T07:33:27.761Z,8.80
2019-01-28T07:34:28.080Z,7.33
2019-01-28T07:35:15.413Z,8.37
2019-01-28T07:35:53.846Z,6.73
2019-01-28T07:36:32.795Z,8.20
2019-01-28T07:37:10.197Z,9.30
2019-01-28T07:37:51.549Z,8.10
2019-01-28T07:38:28.007Z,7.63
2019-01-28T07:39:06.769Z,7.40
2019-01-28T07:39:44.923Z,7.70
2019-01-28T07:40:31.999Z,8.37
2019-01-28T07:41:09.792Z,8.10
2019-01-28T07:41:48.513Z,9.13
2019-01-28T07:42:24.802Z,8.53
2019-01-28T07:43:01.148Z,8.27
2019-01-28T07:43:40.199Z,7.93
2019-01-28T07:44:21.386Z,8.00
2019-01-28T07:45:01.244Z,8.20
2019-01-28T07:45:45.304Z,9.20
2019-01-28T07:46:22.773Z,8.37
2019-01-28T07:46:59.031Z,7.93
2019-01-28T07:47:36.541Z,7.07
2019-01-28T07:48:15.152Z,7.13
2019-01-28T07:48:52.989Z,8.80
2019-01-28T07:49:29.220Z,8.70
2019-01-28T07:50:12.127Z,8.80
2019-01-28T07:50:49.885Z,7.27
2019-01-28T07:51:27.582Z,10.30
2019-01-28T07:52:05.462Z,9.33
2019-01-28T07:52:45.155Z,10.13
2019-01-28T07:53:22.709Z,8.13
2019-01-28T07:54:00.209Z,10.20
2019-01-28T07:54:36.559Z,9.37
2019-01-28T07:55:14.137Z,9.57
2019-01-28T07:55:50.425Z,8.27
2019-01-28T07:56:29.405Z,9.23
2019-01-28T07:57:28.614Z,9.87
2019-01-28T07:58:23.708Z,8.80
2019-01-28T07:59:00.618Z,9.43
2019-01-28T07:59:37.142Z,8.33
2019-01-28T08:00:29.095Z,7.90
2019-01-28T08:01:05.854Z,9.13
2019-01-28T08:01:43.702Z,8.03
2019-01-28T08:02:19.912Z,9.30
2019-01-28T08:02:56.655Z,8.60
2019-01-28T08:03:33.791Z,9.13
2019-01-28T08:04:29.699Z,9.63
2019-01-28T08:05:18.801Z,9.10
2019-01-28T08:05:56.411Z,8.37
2019-01-28T08:06:33.002Z,9.80
2019-01-28T08:07:09.478Z,7.80
2019-01-28T08:07:47.640Z,9.70
2019-01-28T08:08:26.955Z,9.00
2019-01-28T08:09:06.261Z,8.57
2019-01-28T08:09:55.117Z,7.93
2019-01-28T08:10:36.348Z,8.23
2019-01-28T08:11:12.767Z,9.07
2019-01-28T08:11:50.483Z,9.33
2019-01-28T08:12:27.910Z,8.33
2019-01-28T08:13:05.216Z,7.80
2019-01-28T08:13:41.690Z,9.67
2019-01-28T08:14:18.844Z,9.30
2019-01-28T08:14:55.178Z,8.83
2019-01-28T08:15:32.691Z,9.67
2019-01-28T08:16:09.214Z,8.27
2019-01-28T08:16:45.602Z,8.80
2019-01-28T08:17:23.039Z,9.10
2019-01-28T08:18:01.019Z,8.67
2019-01-28T08:18:38.798Z,9.23
2019-01-28T08:19:16.455Z,10.20
2019-01-28T08:19:52.818Z,8.90
2019-01-28T08:20:30.797Z,8.00
2019-01-28T08:21:07.299Z,9.40
2019-01-28T08:21:46.882Z,8.00
2019-01-28T08:22:23.158Z,7.67
2019-01-28T08:23:02.438Z,8.37
2019-01-28T08:23:39.550Z,8.27
2019-01-28T08:24:18.197Z,8.67
2019-01-28T08:25:05.289Z,7.43
2019-01-28T08:25:43.039Z,7.80
2019-01-28T08:26:22.163Z,6.80
2019-01-28T08:26:59.785Z,7.00
2019-01-28T08:27:36.516Z,7.53
2019-01-28T08:28:13.003Z,7.97
2019-01-28T08:28:49.969Z,7.90
2019-01-28T08:29:26.266Z,7.80
2019-01-28T08:30:02.719Z,7.27
2019-01-28T08:30:41.561Z,7.30
2019-01-28T08:31:18.483Z,7.23
2019-01-28T08:31:55.694Z,7.10